Time;durP1;ratioP1;P1;durP2;ratioP2;P2;SDS_P1;SDS_P2;PMS_P1;PMS_P2;Temp;Humidity;BMP_temperature;BMP_pressure;BME280_temperature;BME280_humidity;BME280_pressure;Samples;Min_cycle;Max_cycle;Signal;HPM_P1;HPM_P2
2021/12/03 00:00:17;;;;;;;11.43;7.05;;;;;;;-2.22;97.23;100747.97;2001182;29;46475;-62
2021/12/03 00:01:28;;;;;;;14.65;7.10;;;;;;;-2.26;96.79;100752.25;2003856;29;29894;-59
2021/12/03 00:02:30;;;;;;;13.77;6.57;;;;;;;-2.22;96.64;100746.22;1993146;29;44357;-61
2021/12/03 00:03:33;;;;;;;12.45;6.15;;;;;;;-2.25;97.40;100750.50;1993476;29;46047;-60
2021/12/03 00:04:35;;;;;;;17.70;9.50;;;;;;;-2.24;96.75;100749.63;2000714;29;45723;-60
2021/12/03 00:05:38;;;;;;;13.57;6.78;;;;;;;-2.29;96.94;100752.16;2001192;29;44948;-61
2021/12/03 00:06:40;;;;;;;11.98;7.03;;;;;;;-2.28;97.16;100753.03;2001304;29;43380;-61
2021/12/03 00:07:42;;;;;;;15.30;6.82;;;;;;;-2.27;96.68;100752.19;2006960;29;43924;-61
2021/12/03 00:08:45;;;;;;;18.95;8.43;;;;;;;-2.32;96.62;100746.81;2000678;29;44418;-61
2021/12/03 00:09:47;;;;;;;11.05;5.90;;;;;;;-2.28;96.80;100747.78;2001380;29;29999;-60
2021/12/03 00:10:54;;;;;;;12.05;6.68;;;;;;;-2.23;97.43;100751.41;2008709;29;45124;-61
2021/12/03 00:11:58;;;;;;;14.27;6.53;;;;;;;-2.28;96.50;100747.78;2008599;29;43416;-61
2021/12/03 00:13:01;;;;;;;19.60;8.35;;;;;;;-2.27;97.15;100746.94;2009113;29;20946;-61
2021/12/03 00:14:03;;;;;;;11.63;6.43;;;;;;;-2.28;97.47;100750.41;2000812;29;36094;-61
2021/12/03 00:15:09;;;;;;;17.58;6.88;;;;;;;-2.23;97.48;100740.94;2001043;29;42332;-61
2021/12/03 00:16:12;;;;;;;15.35;7.50;;;;;;;-2.21;96.78;100747.09;2009172;29;40260;-59
2021/12/03 00:17:14;;;;;;;12.80;6.65;;;;;;;-2.23;97.30;100744.44;2008909;29;46213;-60
2021/12/03 00:18:21;;;;;;;12.95;6.57;;;;;;;-2.28;97.00;100737.28;2008667;29;42916;-61
2021/12/03 00:19:23;;;;;;;16.02;7.90;;;;;;;-2.21;97.04;100733.97;2008938;29;45058;-61
2021/12/03 00:20:25;;;;;;;12.88;6.70;;;;;;;-2.24;96.82;100741.75;2009311;29;26209;-61
2021/12/03 00:21:27;;;;;;;14.50;8.18;;;;;;;-2.25;96.99;100743.50;2008298;29;45825;-61
2021/12/03 00:22:32;;;;;;;16.92;8.13;;;;;;;-2.24;97.19;100741.75;2002434;29;45788;-61
2021/12/03 00:23:37;;;;;;;10.13;6.38;;;;;;;-2.25;97.17;100737.38;2001528;29;39602;-60
2021/12/03 00:24:39;;;;;;;14.45;7.82;;;;;;;-2.23;96.48;100747.06;2001076;29;45005;-61
2021/12/03 00:25:41;;;;;;;15.88;7.45;;;;;;;-2.21;97.40;100736.59;2001351;29;42555;-61
2021/12/03 00:26:43;;;;;;;16.55;7.85;;;;;;;-2.20;96.62;100734.03;2000404;29;45690;-61
2021/12/03 00:27:45;;;;;;;11.52;7.22;;;;;;;-2.18;96.80;100739.31;1993702;29;20131;-61
2021/12/03 00:28:48;;;;;;;16.25;8.95;;;;;;;-2.19;97.30;100737.53;1992582;29;45265;-61
2021/12/03 00:29:52;;;;;;;11.93;7.50;;;;;;;-2.24;96.99;100740.06;2002208;29;20101;-61
2021/12/03 00:30:56;;;;;;;13.35;7.93;;;;;;;-2.22;96.89;100743.59;2001764;29;30940;-60
2021/12/03 00:31:58;;;;;;;9.63;6.80;;;;;;;-2.16;97.44;100748.09;2002647;29;43608;-60
2021/12/03 00:33:00;;;;;;;10.15;6.15;;;;;;;-2.20;96.99;100741.03;2001018;29;44535;-61
2021/12/03 00:34:02;;;;;;;14.60;8.20;;;;;;;-2.15;96.89;100747.28;1992731;29;43879;-61
2021/12/03 00:35:08;;;;;;;9.35;7.40;;;;;;;-2.21;96.77;100758.47;1986131;29;20843;-62
2021/12/03 00:36:11;;;;;;;12.60;7.70;;;;;;;-2.21;96.89;100752.34;1987596;29;33611;-61
2021/12/03 00:37:13;;;;;;;13.70;7.90;;;;;;;-2.23;97.27;100752.28;2002080;29;20050;-61
2021/12/03 00:38:16;;;;;;;12.93;8.20;;;;;;;-2.21;96.77;100749.72;2001040;29;43980;-60
2021/12/03 00:39:18;;;;;;;14.43;8.20;;;;;;;-2.21;96.36;100757.59;2001831;29;28663;-61
2021/12/03 00:40:31;;;;;;;14.63;8.27;;;;;;;-2.23;97.42;100756.66;2001142;29;44341;-60
2021/12/03 00:41:40;;;;;;;15.60;8.32;;;;;;;-2.25;96.68;100758.38;2000942;29;43424;-61
2021/12/03 00:42:42;;;;;;;11.05;8.35;;;;;;;-2.24;96.50;100757.50;2000793;29;45712;-61
2021/12/03 00:43:48;;;;;;;11.80;8.35;;;;;;;-2.22;97.34;100758.44;1992847;29;46307;-61
2021/12/03 00:44:52;;;;;;;15.95;9.25;;;;;;;-2.22;97.11;100771.56;1993952;29;29926;-61
2021/12/03 00:46:04;;;;;;;15.80;8.65;;;;;;;-2.26;96.62;100762.72;2000813;29;44466;-61
2021/12/03 00:47:06;;;;;;;13.27;8.77;;;;;;;-2.26;96.84;100757.47;2003050;29;46161;-61
2021/12/03 00:48:08;;;;;;;14.88;8.98;;;;;;;-2.29;96.92;100767.00;2007992;29;45387;-61
2021/12/03 00:49:10;;;;;;;16.95;8.80;;;;;;;-2.28;96.83;100763.53;2008609;29;46592;-61
2021/12/03 00:50:18;;;;;;;22.30;12.90;;;;;;;-2.26;96.90;100760.09;2005483;29;33251;-61
2021/12/03 00:51:23;;;;;;;13.13;9.20;;;;;;;-2.27;96.41;100765.31;2001040;29;43319;-61
2021/12/03 00:52:25;;;;;;;13.93;9.57;;;;;;;-2.29;96.41;100769.63;2001076;29;43781;-61
2021/12/03 00:53:27;;;;;;;14.70;9.65;;;;;;;-2.25;97.00;100768.84;2000071;29;43185;-61
2021/12/03 00:54:28;;;;;;;14.13;9.10;;;;;;;-2.24;96.90;100773.22;1999859;29;47829;-60
2021/12/03 00:55:32;;;;;;;17.65;10.55;;;;;;;-2.23;96.85;100769.78;2001369;29;30845;-59
2021/12/03 00:56:37;;;;;;;19.58;10.07;;;;;;;-2.21;97.26;100761.09;2000847;29;45793;-61
2021/12/03 00:57:40;;;;;;;18.17;11.18;;;;;;;-2.21;97.00;100763.72;1992480;29;45988;-61
2021/12/03 00:58:43;;;;;;;13.68;9.50;;;;;;;-2.23;96.58;100757.53;1993218;29;45542;-61
2021/12/03 00:59:44;;;;;;;22.42;11.40;;;;;;;-2.22;96.85;100753.22;1997532;29;45883;-60
2021/12/03 01:00:46;;;;;;;20.52;10.30;;;;;;;-2.24;96.82;100766.28;2001447;29;20051;-61
2021/12/03 01:01:48;;;;;;;18.10;11.50;;;;;;;-2.20;96.88;100762.88;2010228;29;45629;-61
2021/12/03 01:02:53;;;;;;;14.15;10.43;;;;;;;-2.20;96.63;100756.75;2008809;29;45344;-61
2021/12/03 01:03:55;;;;;;;17.85;10.48;;;;;;;-2.22;96.68;100763.69;2000747;29;32824;-60
2021/12/03 01:04:56;;;;;;;17.77;11.25;;;;;;;-2.19;96.72;100769.00;2000859;29;44911;-61
2021/12/03 01:05:59;;;;;;;19.63;11.73;;;;;;;-2.22;96.48;100776.81;2009812;29;20118;-61
2021/12/03 01:07:01;;;;;;;19.55;10.90;;;;;;;-2.21;96.94;100778.56;2008910;29;34679;-60
2021/12/03 01:08:03;;;;;;;17.40;11.40;;;;;;;-2.24;96.85;100781.09;2008309;29;43886;-60
2021/12/03 01:09:05;;;;;;;16.10;11.15;;;;;;;-2.20;96.41;100775.13;2000079;29;41145;-61
2021/12/03 01:10:08;;;;;;;18.23;11.50;;;;;;;-2.18;96.54;100781.28;2000581;29;44033;-61
2021/12/03 01:11:12;;;;;;;13.82;11.23;;;;;;;-2.20;97.10;100778.59;2008467;29;44394;-61
2021/12/03 01:12:14;;;;;;;17.02;11.20;;;;;;;-2.17;96.84;100775.16;2000481;29;37184;-60
2021/12/03 01:13:16;;;;;;;14.45;10.75;;;;;;;-2.15;97.40;100773.50;2000673;29;46530;-60
2021/12/03 01:14:19;;;;;;;19.23;12.40;;;;;;;-2.18;96.90;100774.28;2008384;29;43915;-61
2021/12/03 01:15:25;;;;;;;18.77;10.93;;;;;;;-2.17;96.75;100783.03;2008468;29;45437;-61
2021/12/03 01:16:30;;;;;;;18.05;12.00;;;;;;;-2.19;96.41;100775.16;2000386;29;46025;-61
2021/12/03 01:17:31;;;;;;;12.57;9.82;;;;;;;-2.22;97.33;100777.69;2001544;29;35736;-61
2021/12/03 01:18:33;;;;;;;11.07;9.05;;;;;;;-2.23;96.41;100775.03;2008084;29;46499;-61
2021/12/03 01:19:35;;;;;;;13.05;9.93;;;;;;;-2.26;96.56;100777.56;2008542;29;42408;-60
2021/12/03 01:20:41;;;;;;;16.20;10.65;;;;;;;-2.26;97.02;100778.47;2008670;29;45765;-61
2021/12/03 01:21:43;;;;;;;13.98;9.63;;;;;;;-2.31;97.29;100773.09;2001428;29;44109;-60
2021/12/03 01:22:47;;;;;;;12.07;9.52;;;;;;;-2.25;97.07;100779.34;2001044;29;40990;-60
2021/12/03 01:23:51;;;;;;;14.45;10.75;;;;;;;-2.18;97.30;100782.16;2000742;29;39437;-60
2021/12/03 01:24:52;;;;;;;14.73;9.60;;;;;;;-2.22;96.78;100780.31;1992659;29;45970;-60
2021/12/03 01:25:55;;;;;;;13.60;9.40;;;;;;;-2.21;96.51;100775.94;1993321;29;35352;-60
2021/12/03 01:26:56;;;;;;;16.45;10.52;;;;;;;-2.15;97.16;100770.88;2000265;29;46214;-60
2021/12/03 01:28:01;;;;;;;14.00;9.60;;;;;;;-2.19;97.16;100774.25;1992670;29;42184;-61
2021/12/03 01:29:03;;;;;;;17.83;10.82;;;;;;;-2.13;97.33;100775.31;1992850;29;45329;-61
2021/12/03 01:30:09;;;;;;;18.77;10.88;;;;;;;-2.12;97.53;100771.84;2003179;29;44411;-60
2021/12/03 01:31:11;;;;;;;14.45;9.35;;;;;;;-2.09;97.41;100773.66;2008481;29;33490;-61
2021/12/03 01:32:13;;;;;;;12.10;9.85;;;;;;;-2.13;96.53;100780.53;2009054;29;44096;-61
2021/12/03 01:33:15;;;;;;;16.15;10.93;;;;;;;-2.08;97.62;100775.44;2009647;29;43831;-61
2021/12/03 01:34:17;;;;;;;14.10;9.63;;;;;;;-2.09;97.25;100776.28;2000127;29;41218;-61
2021/12/03 01:35:20;;;;;;;13.43;9.50;;;;;;;-2.07;96.85;100778.94;2000646;29;46132;-61
2021/12/03 01:36:23;;;;;;;12.95;9.48;;;;;;;-2.10;97.22;100779.72;2001122;29;20890;-61
2021/12/03 01:37:24;;;;;;;14.25;10.45;;;;;;;-2.09;97.24;100781.50;2000581;29;41782;-61
2021/12/03 01:38:26;;;;;;;14.18;10.10;;;;;;;-2.11;97.51;100788.47;2008348;29;42213;-61
2021/12/03 01:39:28;;;;;;;17.30;9.55;;;;;;;-2.11;96.97;100781.47;2007412;29;33619;-60
2021/12/03 01:40:31;;;;;;;13.27;9.82;;;;;;;-2.05;96.99;100787.72;2008467;29;43086;-61
2021/12/03 01:41:36;;;;;;;14.20;8.18;;;;;;;-2.11;97.44;100780.59;2007587;29;45406;-61
2021/12/03 01:42:38;;;;;;;18.33;10.02;;;;;;;-2.10;96.83;100787.59;2008071;29;46667;-61
2021/12/03 01:43:41;;;;;;;15.90;10.15;;;;;;;-2.09;96.97;100789.38;2008660;29;42458;-61
2021/12/03 01:44:43;;;;;;;12.98;9.00;;;;;;;-2.06;96.70;100778.97;2007180;29;44291;-61
2021/12/03 01:45:44;;;;;;;12.45;10.40;;;;;;;-2.03;96.62;100784.28;2007803;29;47637;-59
2021/12/03 01:46:46;;;;;;;12.02;9.70;;;;;;;-2.02;97.65;100788.69;2007442;29;43340;-60
2021/12/03 01:47:50;;;;;;;13.00;9.88;;;;;;;-2.03;96.69;100781.66;2008047;29;44600;-61
2021/12/03 01:48:52;;;;;;;15.05;10.35;;;;;;;-2.05;97.22;100787.72;1999643;29;45908;-61
2021/12/03 01:49:53;;;;;;;15.00;8.20;;;;;;;-2.10;97.00;100787.59;2000439;29;44293;-61
2021/12/03 01:50:59;;;;;;;12.35;8.95;;;;;;;-2.07;97.26;100790.31;2009061;29;20154;-61
2021/12/03 01:52:01;;;;;;;12.48;9.85;;;;;;;-2.03;97.63;100784.28;1999880;29;46141;-60
2021/12/03 01:53:07;;;;;;;14.88;9.75;;;;;;;-2.01;97.01;100787.84;1993769;29;20170;-60
2021/12/03 01:54:11;;;;;;;13.77;9.20;;;;;;;-2.07;97.01;100790.31;1994373;29;34489;-61
2021/12/03 01:55:14;;;;;;;11.55;9.43;;;;;;;-2.09;96.75;100794.63;1994097;29;44164;-59
2021/12/03 01:56:17;;;;;;;14.48;9.93;;;;;;;-2.03;96.58;100794.78;1994101;29;44923;-60
2021/12/03 01:57:21;;;;;;;12.07;9.40;;;;;;;-2.11;96.57;100784.09;2002966;29;20196;-61
2021/12/03 01:58:23;;;;;;;14.52;9.45;;;;;;;-2.06;97.05;100788.56;2009979;29;39599;-61
2021/12/03 01:59:25;;;;;;;19.50;10.15;;;;;;;-2.09;97.44;100784.13;2010090;29;36122;-61
2021/12/03 02:00:34;;;;;;;15.90;11.27;;;;;;;-2.01;97.70;100794.81;2009433;29;43919;-60
2021/12/03 02:01:36;;;;;;;17.30;10.77;;;;;;;-2.02;97.93;100783.44;2009479;29;46415;-61
2021/12/03 02:02:41;;;;;;;16.27;10.88;;;;;;;-2.02;97.70;100788.69;2010459;29;20050;-61
2021/12/03 02:03:47;;;;;;;15.70;10.93;;;;;;;-1.98;97.60;100794.91;2011048;29;45230;-61
2021/12/03 02:04:49;;;;;;;15.55;10.70;;;;;;;-1.99;97.48;100796.66;2009687;29;46130;-61
2021/12/03 02:05:53;;;;;;;19.40;9.73;;;;;;;-2.02;97.56;100793.06;2001684;29;45266;-59
2021/12/03 02:06:55;;;;;;;14.75;9.55;;;;;;;-2.04;96.67;100790.41;2001888;29;44379;-60
2021/12/03 02:07:57;;;;;;;14.43;10.63;;;;;;;-2.03;97.13;100794.78;2009060;29;46106;-61
2021/12/03 02:09:00;;;;;;;13.07;9.77;;;;;;;-2.06;97.43;100806.91;2008452;29;47327;-60
2021/12/03 02:10:04;;;;;;;14.07;10.05;;;;;;;-2.05;97.52;100799.09;2008871;29;46737;-60
2021/12/03 02:11:09;;;;;;;11.27;8.68;;;;;;;-2.11;96.81;100804.19;2001916;29;42179;-61
2021/12/03 02:12:11;;;;;;;14.43;8.70;;;;;;;-2.10;96.96;100795.47;2001981;29;38083;-60
2021/12/03 02:13:14;;;;;;;12.98;9.02;;;;;;;-2.11;97.04;100801.56;2002168;29;43436;-61
2021/12/03 02:14:15;;;;;;;16.08;10.27;;;;;;;-2.12;97.14;100802.41;2001872;29;45056;-61
2021/12/03 02:15:18;;;;;;;16.92;9.40;;;;;;;-2.09;97.29;100792.00;2001831;29;45329;-61
2021/12/03 02:16:21;;;;;;;11.90;8.48;;;;;;;-2.14;96.59;100806.72;2002085;29;41174;-61
2021/12/03 02:17:23;;;;;;;13.90;8.93;;;;;;;-2.15;97.41;100802.34;2008701;29;44447;-61
2021/12/03 02:18:27;;;;;;;13.32;9.73;;;;;;;-2.12;96.93;100807.66;2008911;29;45948;-61
2021/12/03 02:19:29;;;;;;;10.68;8.40;;;;;;;-2.16;97.72;100797.94;2009746;29;43922;-61
2021/12/03 02:20:34;;;;;;;12.82;9.95;;;;;;;-2.14;97.74;100798.84;2008998;29;44890;-60
2021/12/03 02:21:37;;;;;;;12.77;8.90;;;;;;;-2.15;97.20;100800.59;2009145;29;41052;-60
2021/12/03 02:22:41;;;;;;;15.85;10.32;;;;;;;-2.16;97.52;100793.56;2001300;29;45428;-60
2021/12/03 02:23:43;;;;;;;10.95;8.18;;;;;;;-2.19;97.44;100795.22;2002193;29;32111;-61
2021/12/03 02:24:46;;;;;;;10.35;7.30;;;;;;;-2.21;97.39;100794.31;2009427;29;43907;-61
2021/12/03 02:25:50;;;;;;;14.35;9.60;;;;;;;-2.21;97.44;100796.91;2009543;29;20061;-61
2021/12/03 02:26:52;;;;;;;14.48;10.27;;;;;;;-2.15;97.52;100797.09;2009395;29;31780;-60
2021/12/03 02:27:57;;;;;;;17.42;10.82;;;;;;;-2.17;97.26;100789.19;2009829;29;44072;-61
2021/12/03 02:28:59;;;;;;;18.88;9.25;;;;;;;-2.19;97.17;100797.84;2009545;29;44449;-61
2021/12/03 02:30:02;;;;;;;14.23;10.77;;;;;;;-2.12;97.75;100794.53;2009608;29;43608;-60
2021/12/03 02:31:04;;;;;;;14.63;10.52;;;;;;;-2.18;97.49;100790.03;2009001;29;44095;-61
2021/12/03 02:32:06;;;;;;;14.48;10.85;;;;;;;-2.21;97.86;100800.44;2008866;29;46024;-61
2021/12/03 02:33:09;;;;;;;13.27;9.90;;;;;;;-2.19;97.40;100801.38;2008307;29;45193;-61
2021/12/03 02:34:14;;;;;;;15.20;11.65;;;;;;;-2.15;97.82;100795.38;2010048;29;46282;-61
2021/12/03 02:35:17;;;;;;;16.85;11.20;;;;;;;-2.15;97.44;100797.09;2002144;29;20046;-61
2021/12/03 02:36:20;;;;;;;15.43;10.88;;;;;;;-2.13;97.75;100800.66;2001625;29;45852;-61
2021/12/03 02:37:21;;;;;;;16.38;11.00;;;;;;;-2.16;97.32;100795.31;2009224;29;44409;-61
2021/12/03 02:38:23;;;;;;;15.00;10.93;;;;;;;-2.11;97.61;100797.22;2009554;29;39436;-61
2021/12/03 02:39:26;;;;;;;19.48;11.98;;;;;;;-2.07;98.28;100797.28;2009321;29;45401;-61
2021/12/03 02:40:27;;;;;;;13.10;9.63;;;;;;;-2.09;98.23;100778.88;2009368;29;42604;-61
2021/12/03 02:41:29;;;;;;;18.98;12.82;;;;;;;-2.02;97.40;100785.19;2009230;29;46871;-61
2021/12/03 02:42:31;;;;;;;17.08;12.73;;;;;;;-2.02;97.28;100788.69;2009274;29;45747;-61
2021/12/03 02:43:33;;;;;;;17.33;12.23;;;;;;;-2.00;97.36;100787.00;2009496;29;45278;-61
2021/12/03 02:44:35;;;;;;;19.45;12.73;;;;;;;-1.95;97.56;100795.00;2009351;29;44206;-61
2021/12/03 02:45:39;;;;;;;19.02;12.77;;;;;;;-1.97;98.08;100787.06;2009451;29;42443;-61
2021/12/03 02:46:41;;;;;;;20.33;13.68;;;;;;;-1.96;97.89;100786.22;2009797;29;31815;-62
2021/12/03 02:47:43;;;;;;;18.25;12.55;;;;;;;-1.93;98.35;100785.41;2009516;29;45350;-61
2021/12/03 02:48:44;;;;;;;18.38;11.80;;;;;;;-1.95;97.61;100785.38;2008939;29;43914;-61
2021/12/03 02:49:47;;;;;;;18.45;12.63;;;;;;;-1.96;98.33;100786.22;1989526;29;45271;-61
2021/12/03 02:50:52;;;;;;;16.50;13.32;;;;;;;-1.95;97.16;100785.38;1979218;29;43548;-61
2021/12/03 02:51:53;;;;;;;19.23;12.43;;;;;;;-1.98;97.72;100777.41;1986274;29;33596;-60
2021/12/03 02:52:56;;;;;;;17.88;12.10;;;;;;;-1.98;97.39;100779.16;1992630;29;45420;-61
2021/12/03 02:53:58;;;;;;;20.25;13.55;;;;;;;-1.99;98.19;100787.88;1985793;29;42677;-61
2021/12/03 02:55:01;;;;;;;20.42;12.73;;;;;;;-1.99;98.10;100780.91;1987219;29;33506;-61
2021/12/03 02:56:04;;;;;;;17.90;13.18;;;;;;;-1.95;98.33;100780.13;1985968;29;45845;-61
2021/12/03 02:57:06;;;;;;;23.65;14.63;;;;;;;-1.92;97.47;100781.94;1985476;29;44380;-61
2021/12/03 02:58:09;;;;;;;22.83;14.23;;;;;;;-1.99;97.89;100785.25;1986562;29;32250;-61
2021/12/03 02:59:11;;;;;;;19.38;13.55;;;;;;;-1.98;97.35;100780.03;1993430;29;43589;-61
2021/12/03 03:00:16;;;;;;;20.48;14.82;;;;;;;-1.96;97.32;100788.84;1994141;29;44274;-61
2021/12/03 03:01:18;;;;;;;19.83;14.43;;;;;;;-1.95;97.38;100785.38;1993964;29;45941;-61
2021/12/03 03:02:20;;;;;;;22.42;14.85;;;;;;;-1.95;97.79;100785.38;1993884;29;45777;-61
2021/12/03 03:03:27;;;;;;;20.52;15.18;;;;;;;-1.94;97.87;100787.16;1993841;29;44212;-61
2021/12/03 03:04:29;;;;;;;24.52;15.90;;;;;;;-1.93;97.92;100798.53;1993855;29;44090;-61
2021/12/03 03:05:32;;;;;;;24.38;15.43;;;;;;;-1.97;97.46;100797.56;1993986;29;45504;-61
2021/12/03 03:06:34;;;;;;;20.40;14.18;;;;;;;-1.97;97.83;100799.31;1994171;29;34764;-61
2021/12/03 03:07:40;;;;;;;20.02;13.68;;;;;;;-1.95;97.32;100805.50;1993928;29;44471;-61
2021/12/03 03:08:44;;;;;;;19.63;13.55;;;;;;;-1.92;97.69;100802.91;1985775;29;45314;-61
2021/12/03 03:09:46;;;;;;;19.63;14.50;;;;;;;-1.86;97.80;100800.47;1979434;29;43510;-61
2021/12/03 03:10:48;;;;;;;20.73;15.32;;;;;;;-1.83;97.67;100803.19;1985780;29;45296;-52
2021/12/03 03:11:50;;;;;;;25.58;16.65;;;;;;;-1.79;97.94;100807.66;1985882;29;45978;-61
2021/12/03 03:12:52;;;;;;;22.48;15.50;;;;;;;-1.75;98.03;100808.59;1986072;29;44114;-60
2021/12/03 03:13:56;;;;;;;18.70;13.77;;;;;;;-1.76;97.88;100802.47;1993980;29;43256;-60
2021/12/03 03:15:00;;;;;;;25.25;16.63;;;;;;;-1.70;98.03;100811.38;1993620;29;45981;-61
2021/12/03 03:16:03;;;;;;;21.35;15.23;;;;;;;-1.71;97.47;100807.81;1985808;29;44274;-61
2021/12/03 03:17:04;;;;;;;27.75;15.65;;;;;;;-1.73;97.62;100802.53;1983509;29;46778;-61
2021/12/03 03:18:26;;;;;;;22.92;14.50;;;;;;;-1.72;98.07;100808.69;2001303;29;42516;-61
2021/12/03 03:19:28;;;;;;;20.35;14.15;;;;;;;-1.73;97.51;100815.66;2010791;29;45550;-61
2021/12/03 03:20:29;;;;;;;17.77;13.55;;;;;;;-1.76;97.48;100815.59;2010005;29;45133;-60
2021/12/03 03:21:31;;;;;;;15.65;11.80;;;;;;;-1.76;98.01;100812.06;2009119;29;45494;-61
2021/12/03 03:22:35;;;;;;;22.20;15.35;;;;;;;-1.79;98.15;100809.38;2009105;29;33545;-61
2021/12/03 03:23:38;;;;;;;20.40;12.95;;;;;;;-1.78;97.65;100814.66;2001100;29;42551;-59
2021/12/03 03:24:41;;;;;;;19.55;14.40;;;;;;;-1.77;97.95;100808.56;1993905;29;44044;-61
2021/12/03 03:25:46;;;;;;;21.50;14.77;;;;;;;-1.78;98.46;100808.53;2001552;29;43729;-61
2021/12/03 03:26:48;;;;;;;19.08;14.23;;;;;;;-1.71;98.17;100814.81;2008895;29;43895;-61
2021/12/03 03:27:50;;;;;;;25.60;15.68;;;;;;;-1.66;98.49;100800.97;2000890;29;43926;-61
2021/12/03 03:28:56;;;;;;;21.88;15.38;;;;;;;-1.67;98.09;100800.91;1993684;29;43388;-60
2021/12/03 09:11:47;;;;;;;66.97;35.53;;;;;;;0.05;96.75;100672.06;2370885;23;20023;-61
2021/12/03 09:12:49;;;;;;;64.07;34.40;;;;;;;0.04;97.00;100675.56;2000511;29;43362;-62
2021/12/03 09:13:51;;;;;;;69.03;39.38;;;;;;;0.04;96.90;100671.19;1999153;29;37794;-62
2021/12/03 09:14:56;;;;;;;63.40;36.97;;;;;;;0.05;97.12;100666.78;1992785;29;45071;-62
2021/12/03 09:16:04;;;;;;;72.60;36.78;;;;;;;0.06;96.72;100666.81;1996048;29;29437;-62
2021/12/03 09:17:22;;;;;;;67.63;37.90;;;;;;;0.08;97.05;100664.22;2000716;29;45484;-62
2021/12/03 09:22:00;;;;;;;67.35;36.00;;;;;;;0.10;96.46;100652.81;2002741;29;43702;-62
2021/12/03 09:23:09;;;;;;;65.95;36.50;;;;;;;0.12;96.40;100647.59;2000721;29;44074;-62
2021/12/03 09:24:14;;;;;;;70.32;37.83;;;;;;;0.13;96.39;100654.63;2000780;29;45921;-62
2021/12/03 09:25:21;;;;;;;62.05;34.05;;;;;;;0.13;96.42;100639.72;2000846;29;44134;-62
2021/12/03 09:26:24;;;;;;;71.40;36.00;;;;;;;0.11;96.24;100643.22;2001084;29;33041;-61
2021/12/03 09:27:28;;;;;;;63.58;35.47;;;;;;;0.13;96.20;100647.63;2001279;29;29581;-62
2021/12/03 09:28:31;;;;;;;64.03;34.72;;;;;;;0.15;96.32;100652.91;2000819;29;46010;-62
2021/12/03 09:29:35;;;;;;;68.00;37.10;;;;;;;0.14;96.29;100656.38;2001058;29;45816;-61
2021/12/03 09:30:43;;;;;;;73.32;37.03;;;;;;;0.16;96.26;100649.41;2003421;29;20057;-62
2021/12/03 09:31:47;;;;;;;71.32;36.92;;;;;;;0.17;96.46;100651.19;2000737;29;34923;-63
2021/12/03 09:32:55;;;;;;;72.50;37.42;;;;;;;0.17;96.42;100645.91;1998032;29;42726;-62
2021/12/03 09:33:57;;;;;;;69.18;34.42;;;;;;;0.17;96.43;100649.44;1999000;29;44070;-63
2021/12/03 09:35:02;;;;;;;71.07;36.67;;;;;;;0.20;96.19;100656.50;2000264;29;44648;-62
2021/12/03 09:36:05;;;;;;;67.28;35.83;;;;;;;0.19;96.50;100650.31;1994770;29;45488;-62
2021/12/03 09:37:07;;;;;;;69.57;35.65;;;;;;;0.18;95.97;100645.94;2000871;29;44920;-62
2021/12/03 09:38:10;;;;;;;71.05;36.33;;;;;;;0.21;96.12;100647.72;2001614;29;20059;-62
2021/12/03 09:39:20;;;;;;;68.13;36.15;;;;;;;0.22;96.16;100648.63;2001774;29;20893;-62
2021/12/03 09:40:25;;;;;;;70.22;36.65;;;;;;;0.24;96.01;100641.63;2000668;29;44932;-63
2021/12/03 09:41:27;;;;;;;75.68;35.20;;;;;;;0.25;96.30;100639.03;2001064;29;43699;-63
2021/12/03 09:42:29;;;;;;;74.97;36.72;;;;;;;0.26;96.08;100640.78;2000480;29;45636;-63
2021/12/03 09:43:34;;;;;;;65.05;34.35;;;;;;;0.29;95.82;100640.81;1993975;29;26700;-63
2021/12/03 09:44:44;;;;;;;67.75;35.03;;;;;;;0.28;96.18;100643.44;1992872;29;45309;-63
2021/12/03 09:45:59;;;;;;;70.78;36.28;;;;;;;0.29;96.10;100640.81;2000803;29;45233;-62
2021/12/03 09:47:01;;;;;;;68.20;33.55;;;;;;;0.30;95.99;100634.69;2001037;29;32714;-63
2021/12/03 09:48:28;;;;;;;69.47;35.72;;;;;;;0.31;95.78;100647.00;2000464;29;45344;-62
2021/12/03 09:49:34;;;;;;;68.07;32.53;;;;;;;0.32;95.77;100640.88;1993168;29;28690;-62
2021/12/03 09:50:37;;;;;;;67.90;33.58;;;;;;;0.33;96.01;100642.63;1996306;29;45186;-62
2021/12/03 09:53:21;;;;;;;69.18;34.92;;;;;;;0.35;95.68;100637.41;2000966;29;44673;-62
2021/12/03 09:54:27;;;;;;;68.28;33.08;;;;;;;0.35;95.69;100643.53;1999298;29;45533;-63
2021/12/03 09:55:30;;;;;;;68.00;34.22;;;;;;;0.38;95.95;100632.19;1993975;29;33963;-62
2021/12/03 09:56:33;;;;;;;76.97;33.88;;;;;;;0.40;95.65;100632.19;1992401;29;45585;-61
2021/12/03 09:57:42;;;;;;;73.47;35.38;;;;;;;0.41;95.54;100639.22;1992364;29;44897;-62
2021/12/03 10:01:02;;;;;;;76.65;34.58;;;;;;;0.42;95.33;100627.84;1987027;29;46001;-62
2021/12/03 10:02:34;;;;;;;75.63;34.30;;;;;;;0.55;95.75;100642.91;1978584;29;45346;-63
2021/12/03 10:05:20;;;;;;;66.20;32.22;;;;;;;0.52;95.03;100629.69;1984766;29;45602;-62
2021/12/03 10:10:05;;;;;;;66.80;31.90;;;;;;;0.52;95.20;100617.44;1994388;29;20978;-62
2021/12/03 10:13:19;;;;;;;70.32;30.52;;;;;;;0.55;95.36;100613.94;2000855;29;20050;-62
2021/12/03 10:15:17;;;;;;;67.13;31.38;;;;;;;0.54;95.14;100615.69;1987078;29;46527;-63
2021/12/03 10:21:38;;;;;;;74.18;31.50;;;;;;;0.60;95.22;100612.25;1994505;29;34927;-62
2021/12/03 10:27:24;;;;;;;81.22;31.83;;;;;;;0.63;95.06;100616.66;1994911;29;40517;-62
2021/12/03 10:28:49;;;;;;;71.82;31.52;;;;;;;0.64;94.88;100608.78;1994446;29;32814;-62
2021/12/03 10:32:16;;;;;;;79.00;31.42;;;;;;;0.67;95.16;100589.50;1960650;29;45646;-63
2021/12/03 10:37:24;;;;;;;70.90;31.63;;;;;;;0.69;95.02;100580.75;1994214;29;29756;-62
2021/12/03 10:38:36;;;;;;;81.28;32.08;;;;;;;0.72;95.08;100586.06;1986418;29;20039;-62
2021/12/03 10:39:48;;;;;;;78.43;32.78;;;;;;;0.72;94.75;100583.44;1993312;29;44899;-62
2021/12/03 10:41:09;;;;;;;72.10;32.13;;;;;;;0.73;94.97;100552.69;1993318;29;35441;-62
2021/12/03 10:43:46;;;;;;;79.13;32.30;;;;;;;0.78;94.87;100572.06;1998471;29;44593;-62
2021/12/03 10:47:28;;;;;;;72.65;30.80;;;;;;;0.79;94.39;100568.59;1970622;30;38207;-62
2021/12/03 10:48:40;;;;;;;74.18;31.08;;;;;;;0.82;94.76;100562.44;1962426;30;42664;-62
2021/12/03 10:50:59;;;;;;;75.75;31.90;;;;;;;0.83;94.65;100553.69;1993520;29;32381;-62
2021/12/03 10:52:14;;;;;;;77.50;32.53;;;;;;;0.85;94.93;100546.66;1993640;29;45564;-63
2021/12/03 10:59:44;;;;;;;75.57;30.50;;;;;;;0.92;94.12;100537.97;1999020;29;46784;-62
2021/12/03 11:01:14;;;;;;;68.10;30.20;;;;;;;0.94;93.75;100538.84;1994527;29;42399;-63
2021/12/03 11:04:33;;;;;;;67.38;30.05;;;;;;;0.99;93.56;100529.25;1979304;29;20219;-62
2021/12/03 11:06:02;;;;;;;64.97;29.63;;;;;;;1.01;93.77;100524.88;1992986;29;44647;-70
2021/12/03 11:13:53;;;;;;;63.78;28.45;;;;;;;1.11;92.92;100513.53;1993756;29;43600;-62
2021/12/03 11:25:36;;;;;;;59.53;27.48;;;;;;;1.24;92.57;100503.06;2001732;29;45806;-63
2021/12/03 11:28:58;;;;;;;49.90;25.02;;;;;;;1.39;91.41;100492.66;1998517;29;32365;-62
2021/12/03 11:38:16;;;;;;;46.90;23.35;;;;;;;1.51;90.45;100466.34;2001979;29;20810;-62
2021/12/03 12:01:04;;;;;;;37.65;20.17;;;;;;;1.74;88.23;100436.56;1983169;29;35507;-63
2021/12/03 12:18:27;;;;;;;31.83;16.58;;;;;;;1.88;87.56;100413.78;1985051;29;45788;-63
2021/12/03 12:32:32;;;;;;;22.75;11.70;;;;;;;1.87;87.83;100398.81;1983418;29;44492;-64
2021/12/03 12:40:28;;;;;;;26.00;12.25;;;;;;;1.66;88.59;100378.47;1993319;29;42481;-62
2021/12/03 12:42:04;;;;;;;23.48;10.80;;;;;;;1.62;88.07;100355.59;1985664;29;41051;-67
2021/12/03 12:43:36;;;;;;;20.35;11.32;;;;;;;1.61;88.70;100355.59;1985471;29;46038;-63
2021/12/03 12:44:50;;;;;;;23.38;10.63;;;;;;;1.56;89.46;100349.41;1988701;29;31956;-63
2021/12/03 12:58:22;;;;;;;24.58;10.18;;;;;;;1.34;91.53;100326.44;1988516;29;48348;-62
2021/12/03 13:03:13;;;;;;;25.08;11.00;;;;;;;1.29;91.83;100325.56;1984477;29;43645;-62
2021/12/03 13:10:36;;;;;;;23.30;9.57;;;;;;;1.26;92.36;100312.34;1989804;29;20082;-62
2021/12/03 13:12:36;;;;;;;23.85;10.35;;;;;;;1.26;92.93;100315.00;1995030;29;46689;-62